^^
Saratoga-Weather Station Historical Data
Daily Summary for February 17, 2021 Units:  English    Metric   Both
Daily Weekly Monthly Yearly Custom
  High: Low: Average:
Temperature: 47.7 °F 40.5 °F 45 °F
Dew Point: 44.8 °F 38.3 °F 41.7 °F
Humidity: 93% 81% 88%
Wind Speed: 8.1mph 0mph 1.9mph
Wind Gust: 10mph - -
Wind- - East
Pressure: 30.6 in 30.6 in -
Precipitation: 0 in    
Historical Graphs
 
 
Tabular Data for February 17, 2021
Time Temperature Dew Point Pressure Wind Wind Speed Wind Gust Humidity Rainfall Rate (Hourly) solar
00:03 46 °F 43.9 °F 30.6 in ENE 2 mph 6 mph 92% 0 in 0 W/m2
00:08 46.2 °F 44.1 °F 30.6 in SSE 0.9 mph 3 mph 92% 0 in 0 W/m2
00:13 46.2 °F 44.1 °F 30.6 in East 0.9 mph 3 mph 92% 0 in 0 W/m2
00:18 46.2 °F 44.1 °F 30.6 in SE 0.9 mph 2 mph 92% 0 in 0 W/m2
00:23 46.4 °F 44.2 °F 30.6 in ENE 2 mph 3 mph 92% 0 in 0 W/m2
00:28 46.6 °F 44.4 °F 30.6 in East 2 mph 2 mph 92% 0 in 0 W/m2
00:33 46.6 °F 44.1 °F 30.6 in Calm     91% 0 in 0 W/m2
00:50 46.8 °F 44.2 °F 30.6 in East 4 mph 4 mph 91% 0 in 0 W/m2
00:55 46.8 °F 44.2 °F 30.6 in Calm   3 mph 91% 0 in 0 W/m2
01:00 46.9 °F 44.4 °F 30.6 in Calm   4 mph 91% 0 in 0 W/m2
01:05 46.9 °F 44.4 °F 30.6 in Calm   1 mph 91% 0 in 0 W/m2
01:10 46.9 °F 44.4 °F 30.6 in Calm   3 mph 91% 0 in 0 W/m2
01:15 46.9 °F 44.4 °F 30.6 in ESE 0.9 mph 4 mph 91% 0 in 0 W/m2
01:20 46.9 °F 44.4 °F 30.6 in East 2 mph 3 mph 91% 0 in 0 W/m2
01:25 46.9 °F 44.4 °F 30.6 in Calm   4 mph 91% 0 in 0 W/m2
01:30 46.9 °F 44.4 °F 30.6 in Calm   2 mph 91% 0 in 0 W/m2
01:35 46.9 °F 44.4 °F 30.6 in NE 2.9 mph 4 mph 91% 0 in 0 W/m2
01:40 46.9 °F 44.4 °F 30.6 in East 0.9 mph 3 mph 91% 0 in 0 W/m2
01:45 46.9 °F 44.4 °F 30.6 in East 2 mph 4 mph 91% 0 in 0 W/m2
01:50 46.9 °F 44.4 °F 30.6 in East 2 mph 4 mph 91% 0 in 0 W/m2
01:55 46.9 °F 44.4 °F 30.6 in ENE 2 mph 6 mph 91% 0 in 0 W/m2
02:00 46.9 °F 44.4 °F 30.6 in ESE 2.9 mph 7 mph 91% 0 in 0 W/m2
02:05 47.1 °F 44.6 °F 30.6 in East 0.9 mph 2 mph 91% 0 in 0 W/m2
02:10 46.9 °F 44.4 °F 30.6 in ESE 0.9 mph 7 mph 91% 0 in 0 W/m2
02:15 46.9 °F 44.4 °F 30.6 in Calm   2 mph 91% 0 in 0 W/m2
02:20 46.9 °F 44.4 °F 30.6 in East 0.9 mph 4 mph 91% 0 in 0 W/m2
02:25 46.9 °F 44.8 °F 30.6 in East 0.9 mph 1 mph 92% 0 in 0 W/m2
02:30 46.9 °F 44.8 °F 30.6 in East 2 mph 3 mph 92% 0 in 0 W/m2
02:35 46.8 °F 44.6 °F 30.6 in East 0.9 mph 3 mph 92% 0 in 0 W/m2
02:40 46.8 °F 44.2 °F 30.6 in East 2.9 mph 3 mph 91% 0 in 0 W/m2
02:45 46.8 °F 44.2 °F 30.6 in ESE 2 mph 3 mph 91% 0 in 0 W/m2
02:50 46.8 °F 44.2 °F 30.6 in ESE 2 mph 3 mph 91% 0 in 0 W/m2
02:55 46.8 °F 44.2 °F 30.6 in NE 2 mph 3 mph 91% 0 in 0 W/m2
03:00 46.9 °F 44.4 °F 30.6 in East 0.9 mph 3 mph 91% 0 in 0 W/m2
03:05 46.9 °F 44.4 °F 30.6 in East 2.9 mph 5 mph 91% 0 in 0 W/m2
03:10 46.9 °F 44.4 °F 30.6 in ENE 4 mph 4 mph 91% 0 in 0 W/m2
03:15 46.9 °F 44.4 °F 30.6 in East 2 mph 2 mph 91% 0 in 0 W/m2
03:20 46.9 °F 44.4 °F 30.6 in East 2.9 mph 7 mph 91% 0 in 0 W/m2
03:25 46.9 °F 44.4 °F 30.6 in East 2 mph 2 mph 91% 0 in 0 W/m2
03:30 46.9 °F 44.4 °F 30.6 in East 0.9 mph 3 mph 91% 0 in 0 W/m2
03:35 46.9 °F 44.4 °F 30.6 in ESE 2.9 mph 8 mph 91% 0 in 0 W/m2
03:41 47.1 °F 44.6 °F 30.6 in ENE 4 mph 7 mph 91% 0 in 0 W/m2
03:46 47.1 °F 44.6 °F 30.6 in East 2.9 mph 5 mph 91% 0 in 0 W/m2
03:51 47.1 °F 44.6 °F 30.6 in ESE 2 mph 7 mph 91% 0 in 0 W/m2
03:56 46.9 °F 44.4 °F 30.6 in ESE 2.9 mph 4 mph 91% 0 in 0 W/m2
04:01 46.9 °F 44.4 °F 30.6 in NE 2.9 mph 7 mph 91% 0 in 0 W/m2
04:06 46.9 °F 44.4 °F 30.6 in ENE 2 mph 4 mph 91% 0 in 0 W/m2
04:11 46.9 °F 44.4 °F 30.6 in ENE 2.9 mph 3 mph 91% 0 in 0 W/m2
04:16 46.9 °F 44.4 °F 30.6 in ENE 4.9 mph 5 mph 91% 0 in 0 W/m2
04:21 46.8 °F 44.2 °F 30.6 in East 6 mph 6 mph 91% 0 in 0 W/m2
04:26 46.8 °F 44.2 °F 30.6 in ENE 2.9 mph 7 mph 91% 0 in 0 W/m2
04:31 46.8 °F 44.2 °F 30.6 in East 2 mph 4 mph 91% 0 in 0 W/m2
04:36 46.8 °F 44.2 °F 30.6 in East 4 mph 7 mph 91% 0 in 0 W/m2
04:41 46.8 °F 44.2 °F 30.6 in ESE 2.9 mph 8 mph 91% 0 in 0 W/m2
04:46 46.8 °F 44.1 °F 30.6 in SE 2 mph 10 mph 90% 0 in 0 W/m2
04:51 46.8 °F 44.1 °F 30.6 in ENE 2.9 mph 7 mph 90% 0 in 0 W/m2
04:56 46.8 °F 44.1 °F 30.6 in ESE 2.9 mph 4 mph 90% 0 in 0 W/m2
05:12 46.8 °F 44.2 °F 30.6 in ENE 2 mph 10 mph 91% 0 in 0 W/m2
05:17 46.8 °F 44.2 °F 30.6 in NE 2.9 mph 5 mph 91% 0 in 0 W/m2
05:23 46.6 °F 43.9 °F 30.6 in ESE 2.9 mph 10 mph 90% 0 in 0 W/m2
05:28 46.6 °F 43.9 °F 30.6 in NE 4 mph 7 mph 90% 0 in 0 W/m2
05:33 46.6 °F 43.9 °F 30.6 in East 0.9 mph 5 mph 90% 0 in 0 W/m2
05:38 46.6 °F 43.9 °F 30.6 in SSE 2 mph 2 mph 90% 0 in 0 W/m2
05:43 46.6 °F 43.9 °F 30.6 in ENE 2.9 mph 6 mph 90% 0 in 0 W/m2
05:48 46.6 °F 43.9 °F 30.6 in NE 2 mph 6 mph 90% 0 in 0 W/m2
05:53 46.4 °F 43.7 °F 30.6 in East 8.1 mph 8 mph 90% 0 in 0 W/m2
05:58 46.4 °F 43.3 °F 30.6 in East 2.9 mph 7 mph 89% 0 in 0 W/m2
06:03 46.4 °F 43.3 °F 30.6 in East 8.1 mph 10 mph 89% 0 in 0 W/m2
06:08 46.6 °F 43.5 °F 30.6 in NE 2 mph 5 mph 89% 0 in 0 W/m2
06:13 46.6 °F 43.2 °F 30.6 in East 6.9 mph 8 mph 88% 0 in 0 W/m2
06:18 46.6 °F 43.2 °F 30.6 in East 0.9 mph 6 mph 88% 0 in 0 W/m2
06:23 46.6 °F 43 °F 30.6 in South 2 mph 9 mph 87% 0 in 0 W/m2
06:28 46.6 °F 43 °F 30.6 in ENE 4 mph 5 mph 87% 0 in 0 W/m2
06:33 46.6 °F 43 °F 30.6 in SE 4 mph 9 mph 87% 0 in 0 W/m2
06:38 46.6 °F 42.6 °F 30.6 in East 2 mph 7 mph 86% 0 in 0 W/m2
06:43 46.8 °F 42.8 °F 30.6 in SE 2.9 mph 5 mph 86% 0 in 0 W/m2
06:48 46.6 °F 42.3 °F 30.6 in ENE 2 mph 7 mph 85% 0 in 0 W/m2
06:53 46.6 °F 42.3 °F 30.6 in SE 2 mph 4 mph 85% 0 in 0 W/m2
06:58 46.6 °F 42.3 °F 30.6 in East 0.9 mph 7 mph 85% 0 in 0 W/m2
07:03 46.6 °F 42.3 °F 30.6 in SE 0.9 mph 3 mph 85% 0 in 0 W/m2
07:08 46.6 °F 42.3 °F 30.6 in East 2.9 mph 6 mph 85% 0 in 0 W/m2
07:13 46.6 °F 42.3 °F 30.6 in ENE 2 mph 8 mph 85% 0 in 0 W/m2
07:18 46.6 °F 42.3 °F 30.6 in ENE 6.9 mph 10 mph 85% 0 in 0 W/m2
07:23 46.6 °F 42.1 °F 30.6 in ENE 0.9 mph 7 mph 84% 0 in 0 W/m2
07:28 46.6 °F 42.3 °F 30.6 in ENE 2 mph 2 mph 85% 0 in 0 W/m2
07:33 46.4 °F 42.1 °F 30.6 in Calm   3 mph 85% 0 in 0 W/m2
07:38 46.4 °F 42.1 °F 30.6 in East 2.9 mph 3 mph 85% 0 in 0 W/m2
07:43 46.2 °F 41.9 °F 30.6 in NE 2 mph 4 mph 85% 0 in 0 W/m2
07:48 46.2 °F 41.9 °F 30.6 in ENE 0.9 mph 4 mph 85% 0 in 0 W/m2
07:53 46.2 °F 41.9 °F 30.6 in ESE 2.9 mph 3 mph 85% 0 in 0 W/m2
07:58 46.2 °F 41.9 °F 30.6 in ESE 2 mph 4 mph 85% 0 in 0 W/m2
08:03 46 °F 41.7 °F 30.6 in ESE 0.9 mph 3 mph 85% 0 in 0 W/m2
08:08 46 °F 41.7 °F 30.6 in East 2 mph 3 mph 85% 0 in 0 W/m2
08:13 46 °F 41.7 °F 30.6 in ESE 2 mph 3 mph 85% 0 in 0 W/m2
08:18 45.9 °F 41.9 °F 30.6 in East 2 mph 7 mph 86% 0 in 0 W/m2
08:23 45.9 °F 41.9 °F 30.6 in ESE 2.9 mph 5 mph 86% 0 in 0 W/m2
08:28 45.9 °F 41.9 °F 30.6 in East 2.9 mph 7 mph 86% 0 in 0 W/m2
08:33 45.9 °F 41.9 °F 30.6 in ESE 2 mph 4 mph 86% 0 in 5 W/m2
08:38 45.7 °F 41.7 °F 30.6 in East 0.9 mph 7 mph 86% 0 in 7 W/m2
08:43 45.7 °F 41.7 °F 30.6 in SE 2.9 mph 4 mph 86% 0 in 9 W/m2
08:48 45.7 °F 41.4 °F 30.6 in Calm   6 mph 85% 0 in 11 W/m2
08:53 45.5 °F 41.5 °F 30.6 in ESE 2 mph 3 mph 86% 0 in 16 W/m2
08:58 45.3 °F 41.4 °F 30.6 in ESE 2 mph 3 mph 86% 0 in 16 W/m2
09:03 45.1 °F 41.2 °F 30.6 in ENE 2 mph 3 mph 86% 0 in 16 W/m2
09:09 45 °F 41 °F 30.6 in ENE 2 mph 5 mph 86% 0 in 21 W/m2
09:14 45 °F 41 °F 30.6 in ENE 0.9 mph 4 mph 86% 0 in 30 W/m2
09:19 44.8 °F 40.8 °F 30.6 in ESE 4 mph 5 mph 86% 0 in 26 W/m2
09:39 44.8 °F 40.8 °F 30.6 in SE 2.9 mph 4 mph 86% 0 in 21 W/m2
09:44 44.6 °F 41 °F 30.6 in East 6 mph 7 mph 87% 0 in 21 W/m2
09:49 44.8 °F 41.2 °F 30.6 in East 2 mph 3 mph 87% 0 in 23 W/m2
09:54 44.8 °F 41.2 °F 30.6 in East 2 mph 8 mph 87% 0 in 23 W/m2
09:59 45 °F 41.4 °F 30.6 in East 2 mph 4 mph 87% 0 in 25 W/m2
10:04 45 °F 41 °F 30.6 in East 2 mph 3 mph 86% 0 in 25 W/m2
10:09 45 °F 41 °F 30.6 in East 2 mph 3 mph 86% 0 in 26 W/m2
10:14 45 °F 41 °F 30.6 in East 2 mph 8 mph 86% 0 in 35 W/m2
10:19 45.1 °F 41.2 °F 30.6 in SE 2.9 mph 6 mph 86% 0 in 33 W/m2
10:24 45.3 °F 41 °F 30.6 in East 2 mph 8 mph 85% 0 in 26 W/m2
10:29 45.3 °F 41 °F 30.6 in East 4 mph 5 mph 85% 0 in 33 W/m2
10:34 45.7 °F 41.4 °F 30.6 in ESE 0.9 mph 3 mph 85% 0 in 30 W/m2
10:39 45.7 °F 41.4 °F 30.6 in East 0.9 mph 7 mph 85% 0 in 30 W/m2
10:44 45.7 °F 41.4 °F 30.6 in ESE 6.9 mph 8 mph 85% 0 in 32 W/m2
10:49 45.7 °F 41.4 °F 30.6 in East 4 mph 7 mph 85% 0 in 28 W/m2
10:54 45.9 °F 41.4 °F 30.6 in East 6 mph 6 mph 84% 0 in 28 W/m2
10:59 45.9 °F 41.4 °F 30.6 in ESE 2.9 mph 4 mph 84% 0 in 28 W/m2
11:04 46 °F 41.5 °F 30.6 in East 2.9 mph 6 mph 84% 0 in 28 W/m2
11:09 46 °F 41.5 °F 30.6 in East 2.9 mph 4 mph 84% 0 in 37 W/m2
11:14 46 °F 41.5 °F 30.6 in East 0.9 mph 5 mph 84% 0 in 47 W/m2
11:19 46 °F 41.5 °F 30.6 in ESE 2.9 mph 6 mph 84% 0 in 58 W/m2
11:24 46 °F 41.5 °F 30.6 in East 6 mph 7 mph 84% 0 in 51 W/m2
11:29 46.2 °F 41.7 °F 30.6 in ENE 0.9 mph 4 mph 84% 0 in 74 W/m2
11:34 46.2 °F 41.7 °F 30.6 in ENE 2.9 mph 5 mph 84% 0 in 58 W/m2
11:39 46.2 °F 41.7 °F 30.6 in Calm   2 mph 84% 0 in 67 W/m2
11:44 46.2 °F 41.7 °F 30.6 in NNW 2.9 mph 3 mph 84% 0 in 62 W/m2
11:49 46 °F 41.5 °F 30.6 in East 2 mph 4 mph 84% 0 in 58 W/m2
11:54 46 °F 41.5 °F 30.6 in ENE 0.9 mph 7 mph 84% 0 in 46 W/m2
11:59 46 °F 41.5 °F 30.6 in ENE 2 mph 5 mph 84% 0 in 62 W/m2
12:04 46 °F 41.5 °F 30.6 in NE 2.9 mph 7 mph 84% 0 in 79 W/m2
12:09 46 °F 41.5 °F 30.6 in East 2 mph 5 mph 84% 0 in 83 W/m2
12:14 46.2 °F 41.7 °F 30.6 in Calm   7 mph 84% 0 in 72 W/m2
12:19 46.2 °F 41.7 °F 30.6 in East 2.9 mph 6 mph 84% 0 in 54 W/m2
12:24 46.6 °F 42.1 °F 30.6 in Calm   3 mph 84% 0 in 47 W/m2
12:29 46.6 °F 41.7 °F 30.6 in NE 6.9 mph 7 mph 83% 0 in 56 W/m2
12:34 46.6 °F 41.7 °F 30.6 in ESE 2 mph 7 mph 83% 0 in 33 W/m2
12:40 46.6 °F 41.7 °F 30.6 in NNE 4 mph 6 mph 83% 0 in 32 W/m2
12:45 46.6 °F 41.7 °F 30.6 in ESE 2.9 mph   83% 0 in 32 W/m2
12:50 46.8 °F 41.9 °F 30.6 in ENE 2 mph 4 mph 83% 0 in 30 W/m2
12:55 46.8 °F 41.9 °F 30.6 in East 2 mph 8 mph 83% 0 in 30 W/m2
13:00 46.9 °F 41.7 °F 30.6 in South 0.9 mph 7 mph 82% 0 in 30 W/m2
13:05 46.9 °F 41.7 °F 30.6 in ESE 4.9 mph 8 mph 82% 0 in 30 W/m2
13:10 46.9 °F 41.7 °F 30.6 in ENE 6 mph 7 mph 82% 0 in 30 W/m2
13:29 47.3 °F 41.7 °F 30.6 in NE 2 mph 8 mph 81% 0 in 28 W/m2
13:34 47.5 °F 41.9 °F 30.6 in East 6.9 mph 10 mph 81% 0 in 30 W/m2
13:39 47.7 °F 42.1 °F 30.6 in SE 2 mph 5 mph 81% 0 in 30 W/m2
13:44 47.7 °F 42.4 °F 30.6 in NNE 2 mph 4 mph 82% 0 in 32 W/m2
13:49 47.7 °F 42.8 °F 30.6 in North 2.9 mph 7 mph 83% 0 in 32 W/m2
13:54 47.7 °F 42.8 °F 30.6 in Calm   4 mph 83% 0 in 32 W/m2
13:59 47.5 °F 42.6 °F 30.6 in NE 0.9 mph 4 mph 83% 0 in 28 W/m2
14:04 47.5 °F 42.6 °F 30.6 in Calm   3 mph 83% 0 in 28 W/m2
14:09 47.5 °F 42.6 °F 30.6 in SSE 0.9 mph 7 mph 83% 0 in 28 W/m2
14:14 47.5 °F 42.3 °F 30.6 in West 0.9 mph 4 mph 82% 0 in 26 W/m2
14:19 47.3 °F 42.1 °F 30.6 in Calm   5 mph 82% 0 in 26 W/m2
14:24 47.3 °F 42.1 °F 30.6 in ENE 4 mph 7 mph 82% 0 in 26 W/m2
14:29 47.3 °F 42.1 °F 30.6 in ENE 2 mph 5 mph 82% 0 in 25 W/m2
14:34 47.3 °F 42.1 °F 30.6 in NE 2 mph 7 mph 82% 0 in 25 W/m2
14:39 47.3 °F 42.1 °F 30.6 in East 4 mph 6 mph 82% 0 in 23 W/m2
14:44 47.3 °F 42.1 °F 30.6 in NE 2 mph 7 mph 82% 0 in 23 W/m2
14:49 47.3 °F 42.1 °F 30.6 in Calm   4 mph 82% 0 in 23 W/m2
14:54 47.3 °F 42.1 °F 30.6 in East 0.9 mph 4 mph 82% 0 in 23 W/m2
14:59 47.3 °F 42.1 °F 30.6 in SE 2.9 mph 6 mph 82% 0 in 21 W/m2
15:18 46.9 °F 41.7 °F 30.6 in NNE 4 mph 4 mph 82% 0 in 19 W/m2
15:23 46.9 °F 41.7 °F 30.6 in North 6 mph 6 mph 82% 0 in 19 W/m2
15:28 46.9 °F 41.7 °F 30.6 in SW 2 mph 3 mph 82% 0 in 19 W/m2
15:33 46.9 °F 41.7 °F 30.6 in SW 2 mph 2 mph 82% 0 in 18 W/m2
15:38 46.8 °F 41.5 °F 30.6 in East 0.9 mph 3 mph 82% 0 in 18 W/m2
15:43 46.8 °F 41.9 °F 30.6 in Calm   6 mph 83% 0 in 16 W/m2
15:48 46.8 °F 41.9 °F 30.6 in ENE 0.9 mph 4 mph 83% 0 in 16 W/m2
15:53 46.6 °F 41.7 °F 30.6 in ESE 0.9 mph 3 mph 83% 0 in 14 W/m2
15:58 46.6 °F 41.4 °F 30.6 in East 4 mph 6 mph 82% 0 in 14 W/m2
16:03 46.6 °F 41.4 °F 30.6 in SSE 2 mph 2 mph 82% 0 in 12 W/m2
16:08 46.2 °F 41 °F 30.6 in ENE 2 mph 7 mph 82% 0 in 12 W/m2
16:13 46.2 °F 41.4 °F 30.6 in ESE 2 mph 2 mph 83% 0 in 11 W/m2
16:18 46 °F 41.2 °F 30.6 in East 2 mph 2 mph 83% 0 in 9 W/m2
16:23 45.9 °F 41 °F 30.6 in East 0.9 mph 4 mph 83% 0 in 9 W/m2
16:28 45.7 °F 41.2 °F 30.6 in East 2 mph 4 mph 84% 0 in 7 W/m2
16:33 45.5 °F 41 °F 30.6 in Calm   3 mph 84% 0 in 5 W/m2
16:38 45.3 °F 40.8 °F 30.6 in Calm   4 mph 84% 0 in 5 W/m2
16:43 45.1 °F 40.6 °F 30.6 in Calm   1 mph 84% 0 in 0 W/m2
16:48 45.1 °F 40.6 °F 30.6 in NNW 0.9 mph 2 mph 84% 0 in 0 W/m2
16:54 44.8 °F 40.5 °F 30.6 in Calm   2 mph 85% 0 in 0 W/m2
16:59 44.6 °F 40.5 °F 30.6 in Calm   1 mph 85% 0 in 0 W/m2
17:04 44.4 °F 40.5 °F 30.6 in Calm   4 mph 86% 0 in 0 W/m2
17:09 44.2 °F 40.3 °F 30.6 in ENE 0.9 mph 3 mph 86% 0 in 0 W/m2
17:14 44.1 °F 40.5 °F 30.6 in Calm   4 mph 87% 0 in 0 W/m2
17:19 44.1 °F 40.5 °F 30.6 in Calm   1 mph 87% 0 in 0 W/m2
17:24 43.9 °F 40.3 °F 30.6 in Calm   2 mph 87% 0 in 0 W/m2
17:29 43.9 °F 40.3 °F 30.6 in ESE 2 mph 2 mph 87% 0 in 0 W/m2
17:34 43.5 °F 39.9 °F 30.6 in East 0.9 mph 4 mph 87% 0 in 0 W/m2
17:39 43.5 °F 39.9 °F 30.6 in East 2 mph 3 mph 87% 0 in 0 W/m2
17:44 43.3 °F 40.1 °F 30.6 in Calm   4 mph 88% 0 in 0 W/m2
17:49 43.2 °F 39.9 °F 30.6 in Calm   2 mph 88% 0 in 0 W/m2
17:54 43 °F 39.9 °F 30.6 in NNW 2 mph 2 mph 89% 0 in 0 W/m2
17:59 43 °F 39.9 °F 30.6 in NE 0.9 mph 4 mph 89% 0 in 0 W/m2
18:04 42.8 °F 39.7 °F 30.6 in ESE 2 mph 2 mph 89% 0 in 0 W/m2
18:09 42.8 °F 39.7 °F 30.6 in Calm   3 mph 89% 0 in 0 W/m2
18:14 42.6 °F 39.6 °F 30.6 in South 2 mph 2 mph 89% 0 in 0 W/m2
18:19 42.4 °F 39.4 °F 30.6 in Calm   2 mph 89% 0 in 0 W/m2
18:24 42.3 °F 39.6 °F 30.6 in Calm     90% 0 in 0 W/m2
18:29 42.3 °F 39.6 °F 30.6 in SE 2.9 mph 3 mph 90% 0 in 0 W/m2
18:34 42.1 °F 39.4 °F 30.6 in WNW 0.9 mph 3 mph 90% 0 in 0 W/m2
18:39 42.1 °F 39.4 °F 30.6 in Calm   2 mph 90% 0 in 0 W/m2
18:44 41.9 °F 39.2 °F 30.6 in Calm   2 mph 90% 0 in 0 W/m2
18:49 41.7 °F 39 °F 30.6 in East 0.9 mph 2 mph 90% 0 in 0 W/m2
18:54 41.5 °F 39.2 °F 30.6 in East 0.9 mph 2 mph 91% 0 in 0 W/m2
18:59 41.5 °F 39.2 °F 30.6 in ENE 4 mph 4 mph 91% 0 in 0 W/m2
19:04 41.4 °F 39 °F 30.6 in NE 2 mph 4 mph 91% 0 in 0 W/m2
19:09 41.5 °F 39.2 °F 30.6 in SE 0.9 mph 4 mph 91% 0 in 0 W/m2
19:14 41.4 °F 39 °F 30.6 in ENE 0.9 mph 2 mph 91% 0 in 0 W/m2
19:19 41.4 °F 39 °F 30.6 in NE 0.9 mph 5 mph 91% 0 in 0 W/m2
19:24 41.4 °F 39.2 °F 30.6 in ESE 0.9 mph 2 mph 92% 0 in 0 W/m2
19:29 41.2 °F 39 °F 30.6 in Calm   1 mph 92% 0 in 0 W/m2
19:34 41.2 °F 38.8 °F 30.6 in Calm   1 mph 91% 0 in 0 W/m2
19:39 41 °F 38.8 °F 30.6 in Calm   2 mph 92% 0 in 0 W/m2
19:45 40.8 °F 38.7 °F 30.6 in Calm     92% 0 in 0 W/m2
19:50 40.6 °F 38.5 °F 30.6 in Calm   2 mph 92% 0 in 0 W/m2
19:55 40.6 °F 38.5 °F 30.6 in Calm   3 mph 92% 0 in 0 W/m2
20:00 40.5 °F 38.3 °F 30.6 in NE 2.9 mph 4 mph 92% 0 in 0 W/m2
20:05 40.5 °F 38.7 °F 30.6 in ENE 0.9 mph 2 mph 93% 0 in 0 W/m2
20:10 40.5 °F 38.7 °F 30.6 in East 2 mph 4 mph 93% 0 in 0 W/m2
20:15 40.5 °F 38.7 °F 30.6 in ESE 0.9 mph 4 mph 93% 0 in 0 W/m2
20:20 40.5 °F 38.7 °F 30.6 in SE 2 mph 4 mph 93% 0 in 0 W/m2
20:25 40.6 °F 38.8 °F 30.6 in ESE 0.9 mph 6 mph 93% 0 in 0 W/m2
20:30 40.8 °F 39 °F 30.6 in ENE 0.9 mph 6 mph 93% 0 in 0 W/m2
20:35 40.8 °F 39 °F 30.6 in SE 0.9 mph 3 mph 93% 0 in 0 W/m2
20:40 41 °F 39.2 °F 30.6 in ESE 2 mph 6 mph 93% 0 in 0 W/m2
20:45 41 °F 39.2 °F 30.6 in Calm   4 mph 93% 0 in 0 W/m2
20:50 41 °F 39.2 °F 30.6 in East 2 mph 6 mph 93% 0 in 0 W/m2
20:55 41.2 °F 39.4 °F 30.6 in East 2.9 mph 3 mph 93% 0 in 0 W/m2
21:00 41.2 °F 39.4 °F 30.6 in Calm   2 mph 93% 0 in 0 W/m2
21:05 41.2 °F 39.4 °F 30.6 in Calm     93% 0 in 0 W/m2
21:10 41.4 °F 39.2 °F 30.6 in East 2 mph 3 mph 92% 0 in 0 W/m2
21:15 41.2 °F 39 °F 30.6 in ESE 2 mph 6 mph 92% 0 in 0 W/m2
21:20 41.4 °F 39.2 °F 30.6 in ESE 2 mph 3 mph 92% 0 in 0 W/m2
21:25 41.2 °F 38.8 °F 30.6 in ESE 0.9 mph 4 mph 91% 0 in 0 W/m2
21:30 41.2 °F 38.8 °F 30.6 in East 0.9 mph 2 mph 91% 0 in 0 W/m2
21:35 41.2 °F 38.8 °F 30.6 in East 2 mph 2 mph 91% 0 in 0 W/m2
21:40 41.2 °F 38.8 °F 30.6 in ESE 2 mph 3 mph 91% 0 in 0 W/m2
21:45 41.2 °F 38.8 °F 30.6 in ESE 0.9 mph 2 mph 91% 0 in 0 W/m2
21:50 41 °F 38.7 °F 30.6 in Calm   3 mph 91% 0 in 0 W/m2
21:55 41.2 °F 38.8 °F 30.6 in East 0.9 mph 3 mph 91% 0 in 0 W/m2
22:00 41.2 °F 38.8 °F 30.6 in Calm   3 mph 91% 0 in 0 W/m2
22:05 41.2 °F 38.8 °F 30.6 in East 0.9 mph 4 mph 91% 0 in 0 W/m2
22:10 41.2 °F 38.8 °F 30.6 in East 4 mph 4 mph 91% 0 in 0 W/m2
22:15 41.2 °F 39 °F 30.6 in East 2 mph 5 mph 92% 0 in 0 W/m2
22:20 41.4 °F 39.2 °F 30.6 in ESE 2 mph 5 mph 92% 0 in 0 W/m2
22:25 41.4 °F 39.2 °F 30.6 in East 0.9 mph 3 mph 92% 0 in 0 W/m2
22:30 41.4 °F 39.2 °F 30.6 in ENE 2.9 mph 7 mph 92% 0 in 0 W/m2
22:35 41.5 °F 39.4 °F 30.6 in East 2 mph 4 mph 92% 0 in 0 W/m2
22:40 41.5 °F 39.4 °F 30.6 in ESE 2.9 mph 8 mph 92% 0 in 0 W/m2
22:45 41.5 °F 39.4 °F 30.6 in ESE 2.9 mph 4 mph 92% 0 in 0 W/m2
22:50 41.5 °F 39.4 °F 30.6 in East 2 mph 8 mph 92% 0 in 0 W/m2
22:55 41.5 °F 39.4 °F 30.6 in East 2 mph 3 mph 92% 0 in 0 W/m2
23:01 41.5 °F 39.7 °F 30.6 in ESE 2 mph 6 mph 93% 0 in 0 W/m2
23:06 41.5 °F 39.7 °F 30.6 in Calm   2 mph 93% 0 in 0 W/m2
23:11 41.5 °F 39.7 °F 30.6 in Calm   4 mph 93% 0 in 0 W/m2
23:16 41.5 °F 39.7 °F 30.6 in Calm     93% 0 in 0 W/m2
23:21 41.5 °F 39.7 °F 30.6 in ENE 2.9 mph 3 mph 93% 0 in 0 W/m2
23:26 41.5 °F 39.7 °F 30.6 in ENE 0.9 mph 3 mph 93% 0 in 0 W/m2
23:46 41.7 °F 39.9 °F 30.6 in East 2 mph 3 mph 93% 0 in 0 W/m2
23:51 41.7 °F 39.9 °F 30.6 in Calm   2 mph 93% 0 in 0 W/m2
23:56 41.7 °F 39.6 °F 30.6 in Calm   2 mph 92% 0 in 0 W/m2
Juneau County Weather
Compliments of Weather Underground - 4 mb